sensor_id;sensor_type;location;lat;lon;timestamp;P1;durP1;ratioP1;P2;durP2;ratioP2
3979;SDS011;2004;52.452;13.120;2024-03-06T00:07:11;235.03;;;30.97;;
3979;SDS011;2004;52.452;13.120;2024-03-06T00:23:26;231.07;;;28.67;;
3979;SDS011;2004;52.452;13.120;2024-03-06T00:31:41;228.17;;;29.60;;
3979;SDS011;2004;52.452;13.120;2024-03-06T00:39:44;234.87;;;29.43;;
3979;SDS011;2004;52.452;13.120;2024-03-06T00:48:17;228.57;;;29.83;;
3979;SDS011;2004;52.452;13.120;2024-03-06T00:56:15;228.20;;;29.50;;
3979;SDS011;2004;52.452;13.120;2024-03-06T01:04:39;233.77;;;28.90;;
3979;SDS011;2004;52.452;13.120;2024-03-06T01:12:34;227.83;;;28.50;;
3979;SDS011;2004;52.452;13.120;2024-03-06T01:29:19;235.73;;;29.90;;
3979;SDS011;2004;52.452;13.120;2024-03-06T01:54:54;229.03;;;29.07;;
3979;SDS011;2004;52.452;13.120;2024-03-06T02:11:41;236.83;;;29.93;;
3979;SDS011;2004;52.452;13.120;2024-03-06T02:28:48;232.00;;;28.97;;
3979;SDS011;2004;52.452;13.120;2024-03-06T02:37:05;236.63;;;29.97;;
3979;SDS011;2004;52.452;13.120;2024-03-06T02:45:17;238.43;;;31.30;;
3979;SDS011;2004;52.452;13.120;2024-03-06T02:53:48;236.97;;;31.90;;
3979;SDS011;2004;52.452;13.120;2024-03-06T03:01:55;234.77;;;30.90;;
3979;SDS011;2004;52.452;13.120;2024-03-06T03:10:05;231.80;;;29.13;;
3979;SDS011;2004;52.452;13.120;2024-03-06T03:17:56;235.53;;;30.23;;
3979;SDS011;2004;52.452;13.120;2024-03-06T03:25:47;231.53;;;28.90;;
3979;SDS011;2004;52.452;13.120;2024-03-06T03:33:39;226.63;;;27.90;;
3979;SDS011;2004;52.452;13.120;2024-03-06T03:41:30;228.93;;;29.60;;
3979;SDS011;2004;52.452;13.120;2024-03-06T03:49:20;232.57;;;30.40;;
3979;SDS011;2004;52.452;13.120;2024-03-06T03:57:11;231.87;;;29.90;;
3979;SDS011;2004;52.452;13.120;2024-03-06T04:05:04;242.50;;;29.80;;
3979;SDS011;2004;52.452;13.120;2024-03-06T04:12:55;231.10;;;29.53;;
3979;SDS011;2004;52.452;13.120;2024-03-06T04:20:45;237.47;;;29.53;;
3979;SDS011;2004;52.452;13.120;2024-03-06T04:28:36;234.97;;;30.23;;
3979;SDS011;2004;52.452;13.120;2024-03-06T04:36:27;230.73;;;28.07;;
3979;SDS011;2004;52.452;13.120;2024-03-06T04:44:17;232.60;;;29.20;;
3979;SDS011;2004;52.452;13.120;2024-03-06T04:52:08;235.83;;;30.80;;
3979;SDS011;2004;52.452;13.120;2024-03-06T04:59:59;235.47;;;30.03;;
3979;SDS011;2004;52.452;13.120;2024-03-06T05:07:50;238.07;;;31.40;;
3979;SDS011;2004;52.452;13.120;2024-03-06T05:15:41;242.53;;;31.20;;
3979;SDS011;2004;52.452;13.120;2024-03-06T05:23:32;239.97;;;32.17;;
3979;SDS011;2004;52.452;13.120;2024-03-06T05:31:23;237.87;;;31.20;;
3979;SDS011;2004;52.452;13.120;2024-03-06T05:39:15;237.43;;;31.67;;
3979;SDS011;2004;52.452;13.120;2024-03-06T05:47:07;245.17;;;32.07;;
3979;SDS011;2004;52.452;13.120;2024-03-06T05:54:58;243.20;;;33.93;;
3979;SDS011;2004;52.452;13.120;2024-03-06T06:02:49;236.57;;;32.40;;
3979;SDS011;2004;52.452;13.120;2024-03-06T06:10:39;235.60;;;31.70;;
3979;SDS011;2004;52.452;13.120;2024-03-06T06:18:30;246.03;;;32.70;;
3979;SDS011;2004;52.452;13.120;2024-03-06T06:26:22;241.13;;;33.80;;
3979;SDS011;2004;52.452;13.120;2024-03-06T06:34:13;244.57;;;33.20;;
3979;SDS011;2004;52.452;13.120;2024-03-06T06:42:03;239.00;;;31.60;;
3979;SDS011;2004;52.452;13.120;2024-03-06T06:49:54;242.20;;;32.60;;
3979;SDS011;2004;52.452;13.120;2024-03-06T06:57:45;243.30;;;33.60;;
3979;SDS011;2004;52.452;13.120;2024-03-06T07:05:35;240.87;;;34.40;;
3979;SDS011;2004;52.452;13.120;2024-03-06T07:13:26;247.40;;;34.83;;
3979;SDS011;2004;52.452;13.120;2024-03-06T07:21:17;242.53;;;35.00;;
3979;SDS011;2004;52.452;13.120;2024-03-06T07:29:08;258.47;;;35.87;;
3979;SDS011;2004;52.452;13.120;2024-03-06T07:37:04;244.27;;;33.30;;
3979;SDS011;2004;52.452;13.120;2024-03-06T07:44:55;243.17;;;33.57;;
3979;SDS011;2004;52.452;13.120;2024-03-06T07:52:46;251.00;;;37.07;;
3979;SDS011;2004;52.452;13.120;2024-03-06T08:00:36;251.77;;;39.77;;
3979;SDS011;2004;52.452;13.120;2024-03-06T08:08:29;254.70;;;38.40;;
3979;SDS011;2004;52.452;13.120;2024-03-06T08:16:19;256.27;;;37.00;;
3979;SDS011;2004;52.452;13.120;2024-03-06T08:24:10;263.53;;;38.43;;
3979;SDS011;2004;52.452;13.120;2024-03-06T08:32:01;255.83;;;38.10;;
3979;SDS011;2004;52.452;13.120;2024-03-06T08:39:51;253.70;;;39.33;;
3979;SDS011;2004;52.452;13.120;2024-03-06T08:47:43;249.70;;;39.60;;
3979;SDS011;2004;52.452;13.120;2024-03-06T08:55:37;253.77;;;37.47;;
3979;SDS011;2004;52.452;13.120;2024-03-06T09:03:28;243.57;;;36.63;;
3979;SDS011;2004;52.452;13.120;2024-03-06T09:11:19;247.20;;;36.17;;
3979;SDS011;2004;52.452;13.120;2024-03-06T09:19:09;243.10;;;35.20;;
3979;SDS011;2004;52.452;13.120;2024-03-06T09:27:00;239.43;;;35.20;;
3979;SDS011;2004;52.452;13.120;2024-03-06T09:34:51;234.57;;;34.50;;
3979;SDS011;2004;52.452;13.120;2024-03-06T09:42:43;235.83;;;34.67;;
3979;SDS011;2004;52.452;13.120;2024-03-06T09:50:34;241.63;;;33.87;;
3979;SDS011;2004;52.452;13.120;2024-03-06T09:58:27;228.30;;;30.93;;
3979;SDS011;2004;52.452;13.120;2024-03-06T10:06:18;230.73;;;31.40;;
3979;SDS011;2004;52.452;13.120;2024-03-06T10:14:10;229.87;;;30.67;;
3979;SDS011;2004;52.452;13.120;2024-03-06T10:22:02;219.37;;;28.27;;
3979;SDS011;2004;52.452;13.120;2024-03-06T10:30:02;222.50;;;28.77;;
3979;SDS011;2004;52.452;13.120;2024-03-06T10:37:54;212.50;;;23.20;;
3979;SDS011;2004;52.452;13.120;2024-03-06T10:53:40;211.03;;;24.13;;
3979;SDS011;2004;52.452;13.120;2024-03-06T11:01:33;205.00;;;17.43;;
3979;SDS011;2004;52.452;13.120;2024-03-06T11:09:25;198.37;;;17.13;;
3979;SDS011;2004;52.452;13.120;2024-03-06T11:17:17;193.20;;;15.40;;
3979;SDS011;2004;52.452;13.120;2024-03-06T11:33:41;191.47;;;13.27;;
3979;SDS011;2004;52.452;13.120;2024-03-06T11:41:46;191.27;;;14.00;;
3979;SDS011;2004;52.452;13.120;2024-03-06T11:49:37;199.47;;;17.03;;
3979;SDS011;2004;52.452;13.120;2024-03-06T11:57:28;196.90;;;16.83;;
3979;SDS011;2004;52.452;13.120;2024-03-06T12:05:19;197.47;;;16.57;;
3979;SDS011;2004;52.452;13.120;2024-03-06T12:13:10;194.50;;;16.90;;
3979;SDS011;2004;52.452;13.120;2024-03-06T12:21:02;199.40;;;19.27;;
3979;SDS011;2004;52.452;13.120;2024-03-06T12:29:02;201.67;;;19.80;;
3979;SDS011;2004;52.452;13.120;2024-03-06T12:37:07;201.03;;;20.37;;
3979;SDS011;2004;52.452;13.120;2024-03-06T12:44:59;197.97;;;20.00;;
3979;SDS011;2004;52.452;13.120;2024-03-06T12:52:50;196.00;;;15.70;;
3979;SDS011;2004;52.452;13.120;2024-03-06T13:00:42;193.33;;;16.20;;
3979;SDS011;2004;52.452;13.120;2024-03-06T13:08:33;196.20;;;17.80;;
3979;SDS011;2004;52.452;13.120;2024-03-06T13:16:24;194.33;;;16.30;;
3979;SDS011;2004;52.452;13.120;2024-03-06T13:24:15;194.33;;;17.00;;
3979;SDS011;2004;52.452;13.120;2024-03-06T13:32:06;194.67;;;17.20;;
3979;SDS011;2004;52.452;13.120;2024-03-06T13:39:57;192.53;;;16.97;;
3979;SDS011;2004;52.452;13.120;2024-03-06T13:47:53;197.23;;;17.20;;
3979;SDS011;2004;52.452;13.120;2024-03-06T13:55:43;198.87;;;17.30;;
3979;SDS011;2004;52.452;13.120;2024-03-06T14:03:34;199.13;;;19.17;;
3979;SDS011;2004;52.452;13.120;2024-03-06T14:11:27;202.60;;;20.47;;
3979;SDS011;2004;52.452;13.120;2024-03-06T14:19:18;208.13;;;20.57;;
3979;SDS011;2004;52.452;13.120;2024-03-06T14:27:08;205.97;;;21.30;;
3979;SDS011;2004;52.452;13.120;2024-03-06T14:35:01;203.97;;;21.30;;
3979;SDS011;2004;52.452;13.120;2024-03-06T14:42:51;210.47;;;23.90;;
3979;SDS011;2004;52.452;13.120;2024-03-06T14:50:42;213.87;;;19.63;;
3979;SDS011;2004;52.452;13.120;2024-03-06T14:58:33;205.80;;;19.10;;
3979;SDS011;2004;52.452;13.120;2024-03-06T15:06:24;203.27;;;19.63;;
3979;SDS011;2004;52.452;13.120;2024-03-06T15:14:15;207.30;;;22.53;;
3979;SDS011;2004;52.452;13.120;2024-03-06T15:22:06;203.53;;;22.07;;
3979;SDS011;2004;52.452;13.120;2024-03-06T15:29:57;209.87;;;21.67;;
3979;SDS011;2004;52.452;13.120;2024-03-06T15:37:48;212.93;;;22.60;;
3979;SDS011;2004;52.452;13.120;2024-03-06T15:45:39;231.00;;;28.93;;
3979;SDS011;2004;52.452;13.120;2024-03-06T15:53:29;220.77;;;28.47;;
3979;SDS011;2004;52.452;13.120;2024-03-06T16:01:21;216.57;;;25.57;;
3979;SDS011;2004;52.452;13.120;2024-03-06T16:09:12;208.03;;;23.97;;
3979;SDS011;2004;52.452;13.120;2024-03-06T16:17:03;210.30;;;22.20;;
3979;SDS011;2004;52.452;13.120;2024-03-06T16:24:56;201.70;;;20.63;;
3979;SDS011;2004;52.452;13.120;2024-03-06T16:32:46;203.83;;;19.70;;
3979;SDS011;2004;52.452;13.120;2024-03-06T16:40:37;207.60;;;21.40;;
3979;SDS011;2004;52.452;13.120;2024-03-06T16:48:28;208.87;;;22.60;;
3979;SDS011;2004;52.452;13.120;2024-03-06T16:56:18;213.87;;;25.23;;
3979;SDS011;2004;52.452;13.120;2024-03-06T17:04:10;213.33;;;22.77;;
3979;SDS011;2004;52.452;13.120;2024-03-06T17:12:01;204.50;;;20.57;;
3979;SDS011;2004;52.452;13.120;2024-03-06T17:19:51;208.37;;;21.40;;
3979;SDS011;2004;52.452;13.120;2024-03-06T17:27:42;206.90;;;19.50;;
3979;SDS011;2004;52.452;13.120;2024-03-06T17:35:33;199.83;;;18.70;;
3979;SDS011;2004;52.452;13.120;2024-03-06T17:43:23;200.97;;;19.37;;
3979;SDS011;2004;52.452;13.120;2024-03-06T17:51:14;197.07;;;19.10;;
3979;SDS011;2004;52.452;13.120;2024-03-06T17:59:05;198.37;;;20.20;;
3979;SDS011;2004;52.452;13.120;2024-03-06T18:06:56;198.67;;;19.03;;
3979;SDS011;2004;52.452;13.120;2024-03-06T18:14:47;200.87;;;20.37;;
3979;SDS011;2004;52.452;13.120;2024-03-06T18:22:37;205.03;;;21.03;;
3979;SDS011;2004;52.452;13.120;2024-03-06T18:30:28;203.77;;;21.73;;
3979;SDS011;2004;52.452;13.120;2024-03-06T18:38:19;203.10;;;19.53;;
3979;SDS011;2004;52.452;13.120;2024-03-06T18:46:09;202.67;;;21.10;;
3979;SDS011;2004;52.452;13.120;2024-03-06T18:54:01;200.33;;;21.10;;
3979;SDS011;2004;52.452;13.120;2024-03-06T19:01:51;201.27;;;22.03;;
3979;SDS011;2004;52.452;13.120;2024-03-06T19:09:42;206.43;;;22.70;;
3979;SDS011;2004;52.452;13.120;2024-03-06T19:17:34;204.17;;;22.63;;
3979;SDS011;2004;52.452;13.120;2024-03-06T19:25:25;206.37;;;21.63;;
3979;SDS011;2004;52.452;13.120;2024-03-06T19:33:15;207.87;;;23.40;;
3979;SDS011;2004;52.452;13.120;2024-03-06T19:41:06;206.87;;;23.87;;
3979;SDS011;2004;52.452;13.120;2024-03-06T19:48:57;209.33;;;23.03;;
3979;SDS011;2004;52.452;13.120;2024-03-06T19:56:48;203.77;;;21.87;;
3979;SDS011;2004;52.452;13.120;2024-03-06T20:04:40;207.93;;;23.17;;
3979;SDS011;2004;52.452;13.120;2024-03-06T20:12:30;215.93;;;26.90;;
3979;SDS011;2004;52.452;13.120;2024-03-06T20:20:21;214.93;;;27.80;;
3979;SDS011;2004;52.452;13.120;2024-03-06T20:28:11;222.80;;;30.37;;
3979;SDS011;2004;52.452;13.120;2024-03-06T20:36:02;221.57;;;30.60;;
3979;SDS011;2004;52.452;13.120;2024-03-06T20:43:55;225.70;;;32.00;;
3979;SDS011;2004;52.452;13.120;2024-03-06T20:51:45;226.03;;;33.50;;
3979;SDS011;2004;52.452;13.120;2024-03-06T20:59:36;230.77;;;36.70;;
3979;SDS011;2004;52.452;13.120;2024-03-06T21:07:27;236.10;;;36.10;;
3979;SDS011;2004;52.452;13.120;2024-03-06T21:15:17;239.13;;;37.70;;
3979;SDS011;2004;52.452;13.120;2024-03-06T21:23:08;245.37;;;39.30;;
3979;SDS011;2004;52.452;13.120;2024-03-06T21:30:59;254.70;;;42.07;;
3979;SDS011;2004;52.452;13.120;2024-03-06T21:38:49;245.37;;;40.40;;
3979;SDS011;2004;52.452;13.120;2024-03-06T21:46:40;255.17;;;40.10;;
3979;SDS011;2004;52.452;13.120;2024-03-06T21:54:32;245.90;;;38.80;;
3979;SDS011;2004;52.452;13.120;2024-03-06T22:02:23;256.20;;;42.10;;
3979;SDS011;2004;52.452;13.120;2024-03-06T22:10:15;254.87;;;41.10;;
3979;SDS011;2004;52.452;13.120;2024-03-06T22:18:09;254.17;;;42.57;;
3979;SDS011;2004;52.452;13.120;2024-03-06T22:26:00;263.37;;;45.97;;
3979;SDS011;2004;52.452;13.120;2024-03-06T22:33:51;264.17;;;45.77;;
3979;SDS011;2004;52.452;13.120;2024-03-06T22:41:42;278.77;;;47.63;;
3979;SDS011;2004;52.452;13.120;2024-03-06T22:49:33;276.60;;;47.40;;
3979;SDS011;2004;52.452;13.120;2024-03-06T22:57:24;276.33;;;48.33;;
3979;SDS011;2004;52.452;13.120;2024-03-06T23:05:15;278.23;;;47.20;;
3979;SDS011;2004;52.452;13.120;2024-03-06T23:13:06;273.37;;;46.23;;
3979;SDS011;2004;52.452;13.120;2024-03-06T23:20:58;263.53;;;45.17;;
3979;SDS011;2004;52.452;13.120;2024-03-06T23:28:49;271.73;;;45.80;;
3979;SDS011;2004;52.452;13.120;2024-03-06T23:36:39;287.80;;;49.33;;
3979;SDS011;2004;52.452;13.120;2024-03-06T23:44:30;289.00;;;51.60;;
3979;SDS011;2004;52.452;13.120;2024-03-06T23:52:21;319.17;;;56.43;;
